Time;durP1;ratioP1;P1;durP2;ratioP2;P2;SDS_P1;SDS_P2;PMS_P1;PMS_P2;Temp;Humidity;BMP_temperature;BMP_pressure;BME280_temperature;BME280_humidity;BME280_pressure;Samples;Min_cycle;Max_cycle;Signal;HPM_P1;HPM_P2
2023/08/28 00:00:57;;;;;;;336.90;59.50;;;;;;;;;;4926673;28;20057;-55
2023/08/28 00:03:22;;;;;;;346.85;60.05;;;;;;;;;;4927508;28;20422;-53
2023/08/28 00:05:48;;;;;;;316.92;58.25;;;;;;;;;;4927587;28;20492;-54
2023/08/28 00:08:13;;;;;;;429.50;63.93;;;;;;;;;;4924928;28;20031;-52
2023/08/28 00:10:39;;;;;;;323.60;58.53;;;;;;;;;;4924879;28;20688;-52
2023/08/28 00:13:04;;;;;;;466.30;64.78;;;;;;;;;;4926465;28;20169;-52
2023/08/28 00:15:30;;;;;;;341.77;59.20;;;;;;;;;;4924174;28;20040;-54
2023/08/28 00:17:55;;;;;;;264.15;57.30;;;;;;;;;;4928314;28;20430;-52
2023/08/28 00:20:20;;;;;;;342.00;60.37;;;;;;;;;;4925323;28;20028;-52
2023/08/28 00:22:45;;;;;;;310.10;59.67;;;;;;;;;;4925349;28;20266;-53
2023/08/28 00:25:11;;;;;;;409.40;62.30;;;;;;;;;;4924408;28;20063;-53
2023/08/28 00:27:36;;;;;;;344.02;60.72;;;;;;;;;;4925638;28;20046;-55
2023/08/28 00:30:03;;;;;;;417.15;62.92;;;;;;;;;;4925568;28;20050;-54
2023/08/28 00:32:29;;;;;;;292.27;58.30;;;;;;;;;;4926472;28;20040;-52
2023/08/28 00:34:54;;;;;;;336.67;53.22;;;;;;;;;;4925115;28;20438;-52
2023/08/28 00:37:19;;;;;;;295.13;53.05;;;;;;;;;;4926076;28;20066;-53
2023/08/28 00:39:45;;;;;;;309.70;55.30;;;;;;;;;;4928880;28;20124;-55
2023/08/28 00:42:10;;;;;;;472.85;61.85;;;;;;;;;;4924472;28;20071;-52
2023/08/28 00:44:35;;;;;;;300.70;55.50;;;;;;;;;;4924853;28;20074;-53
2023/08/28 00:47:02;;;;;;;290.97;56.03;;;;;;;;;;4924645;28;20043;-52
2023/08/28 00:49:28;;;;;;;351.30;57.10;;;;;;;;;;4924728;28;20279;-54
2023/08/28 00:51:53;;;;;;;312.20;55.08;;;;;;;;;;4911039;28;20089;-53
2023/08/28 00:54:19;;;;;;;448.00;62.63;;;;;;;;;;4924597;28;20058;-54
2023/08/28 00:56:44;;;;;;;299.80;55.78;;;;;;;;;;4925173;28;20159;-53
2023/08/28 00:59:09;;;;;;;475.02;62.58;;;;;;;;;;4926610;28;20020;-52
2023/08/28 01:01:34;;;;;;;310.17;58.17;;;;;;;;;;4925348;28;20044;-52
2023/08/28 01:04:00;;;;;;;332.40;57.00;;;;;;;;;;4927497;28;20342;-52
2023/08/28 01:06:33;;;;;;;285.10;57.33;;;;;;;;;;4924942;28;20279;-52
2023/08/28 01:09:19;;;;;;;320.15;58.15;;;;;;;;;;4925515;28;20334;-54
2023/08/28 01:11:56;;;;;;;290.98;57.95;;;;;;;;;;4925856;28;20454;-52
2023/08/28 01:14:25;;;;;;;337.85;59.47;;;;;;;;;;4925635;28;20057;-52
2023/08/28 01:16:52;;;;;;;327.52;58.80;;;;;;;;;;4925824;28;20032;-53
2023/08/28 01:19:43;;;;;;;430.27;63.75;;;;;;;;;;4923651;28;20117;-54
2023/08/28 01:22:22;;;;;;;448.47;63.77;;;;;;;;;;4922242;28;20139;-52
2023/08/28 01:24:52;;;;;;;303.02;59.25;;;;;;;;;;4924508;28;20275;-52
2023/08/28 01:27:23;;;;;;;458.23;64.72;;;;;;;;;;4924579;28;20124;-53
2023/08/28 01:30:24;;;;;;;336.27;59.20;;;;;;;;;;4925915;28;20426;-52
2023/08/28 01:32:49;;;;;;;312.05;60.83;;;;;;;;;;4927370;28;20449;-52
2023/08/28 01:35:24;;;;;;;384.15;61.45;;;;;;;;;;4923083;28;20043;-53
2023/08/28 01:37:52;;;;;;;325.55;59.47;;;;;;;;;;4926567;28;20513;-53
2023/08/28 01:40:17;;;;;;;461.75;64.68;;;;;;;;;;4922946;28;20023;-53
2023/08/28 01:42:44;;;;;;;366.77;60.67;;;;;;;;;;4924586;28;20094;-53
2023/08/28 01:45:10;;;;;;;403.73;62.80;;;;;;;;;;4924704;28;20035;-54
2023/08/28 01:47:36;;;;;;;332.63;59.88;;;;;;;;;;4925570;28;20016;-52
2023/08/28 01:50:01;;;;;;;412.17;60.60;;;;;;;;;;4926385;28;20029;-53
2023/08/28 01:52:26;;;;;;;296.43;58.07;;;;;;;;;;4923759;28;20031;-52
2023/08/28 01:54:51;;;;;;;320.17;58.50;;;;;;;;;;4924550;28;20251;-54
2023/08/28 01:57:17;;;;;;;443.55;62.40;;;;;;;;;;4923235;28;20264;-52
2023/08/28 01:59:42;;;;;;;286.73;57.10;;;;;;;;;;4926886;28;20788;-53
2023/08/28 02:02:07;;;;;;;358.60;59.23;;;;;;;;;;4926490;28;20668;-54
2023/08/28 02:04:32;;;;;;;337.90;58.37;;;;;;;;;;4927421;28;20314;-52
2023/08/28 02:06:57;;;;;;;301.20;58.93;;;;;;;;;;4928761;28;20272;-52
2023/08/28 02:09:23;;;;;;;377.53;60.67;;;;;;;;;;4928458;28;20275;-52
2023/08/28 02:11:49;;;;;;;317.30;59.25;;;;;;;;;;4930346;28;20298;-53
2023/08/28 02:14:15;;;;;;;422.27;57.70;;;;;;;;;;4930825;28;20634;-54
2023/08/28 02:16:40;;;;;;;274.63;51.95;;;;;;;;;;4927294;28;20552;-55
2023/08/28 02:19:05;;;;;;;355.60;55.83;;;;;;;;;;4926726;28;20026;-54
2023/08/28 02:21:30;;;;;;;306.17;54.30;;;;;;;;;;4928123;28;20043;-54
2023/08/28 02:23:56;;;;;;;295.73;55.00;;;;;;;;;;4929033;28;20287;-55
2023/08/28 02:26:21;;;;;;;450.33;60.30;;;;;;;;;;4925875;28;20039;-57
2023/08/28 02:28:46;;;;;;;218.45;52.15;;;;;;;;;;4928762;28;20677;-56
2023/08/28 02:31:12;;;;;;;359.02;56.30;;;;;;;;;;4925088;28;20150;-55
2023/08/28 02:33:37;;;;;;;344.97;57.27;;;;;;;;;;4929539;28;20371;-57
2023/08/28 02:36:02;;;;;;;278.27;55.13;;;;;;;;;;4928906;28;20349;-55
2023/08/28 02:38:28;;;;;;;301.33;55.90;;;;;;;;;;4926616;28;20024;-56
2023/08/28 02:40:53;;;;;;;356.27;58.00;;;;;;;;;;4928227;28;20051;-57
2023/08/28 02:43:18;;;;;;;465.00;62.60;;;;;;;;;;4926575;28;20548;-55
2023/08/28 02:45:43;;;;;;;308.67;56.43;;;;;;;;;;4925555;28;20856;-53
2023/08/28 02:48:09;;;;;;;314.20;56.83;;;;;;;;;;4926642;28;20457;-55
2023/08/28 02:50:34;;;;;;;277.95;55.60;;;;;;;;;;4927257;28;20414;-54
2023/08/28 02:53:00;;;;;;;330.83;58.55;;;;;;;;;;4927352;28;20026;-52
2023/08/28 02:55:25;;;;;;;402.58;60.85;;;;;;;;;;4926426;28;20036;-54
2023/08/28 02:57:50;;;;;;;316.80;57.42;;;;;;;;;;4925956;28;20028;-52
2023/08/28 03:00:18;;;;;;;383.80;59.70;;;;;;;;;;4925246;28;20817;-53
2023/08/28 03:02:43;;;;;;;343.63;57.78;;;;;;;;;;4928093;28;20031;-53
2023/08/28 03:05:08;;;;;;;295.33;57.63;;;;;;;;;;4926324;28;20075;-53
2023/08/28 03:07:33;;;;;;;288.30;56.88;;;;;;;;;;4927702;28;20375;-53
2023/08/28 03:09:59;;;;;;;371.73;59.43;;;;;;;;;;4926781;28;20032;-56
2023/08/28 03:12:24;;;;;;;434.23;62.67;;;;;;;;;;4924681;28;20389;-55
2023/08/28 03:14:49;;;;;;;315.97;56.97;;;;;;;;;;4924866;28;20024;-54
2023/08/28 03:17:14;;;;;;;403.83;59.50;;;;;;;;;;4923860;28;20400;-53
2023/08/28 03:19:40;;;;;;;303.85;57.05;;;;;;;;;;4927021;28;20258;-53
2023/08/28 03:22:05;;;;;;;269.42;56.05;;;;;;;;;;4926577;28;20387;-53
2023/08/28 03:24:30;;;;;;;326.50;55.57;;;;;;;;;;4926835;28;20549;-54
2023/08/28 03:26:56;;;;;;;325.48;55.17;;;;;;;;;;4926364;28;20805;-53
2023/08/28 03:29:21;;;;;;;413.73;58.17;;;;;;;;;;4924775;28;20034;-53
2023/08/28 03:31:46;;;;;;;314.10;55.33;;;;;;;;;;4928512;28;20043;-53
2023/08/28 03:34:11;;;;;;;378.52;58.20;;;;;;;;;;4925316;28;20375;-56
2023/08/28 03:36:37;;;;;;;316.48;55.88;;;;;;;;;;4926262;28;20142;-52
2023/08/28 03:39:02;;;;;;;341.63;57.80;;;;;;;;;;4928148;28;20035;-54
2023/08/28 03:41:27;;;;;;;434.48;59.55;;;;;;;;;;4924244;28;20365;-54
2023/08/28 03:43:52;;;;;;;293.07;54.80;;;;;;;;;;4927613;28;20075;-53
2023/08/28 03:46:17;;;;;;;419.17;61.13;;;;;;;;;;4924917;28;20040;-54
2023/08/28 03:48:43;;;;;;;287.20;53.90;;;;;;;;;;4926121;28;20275;-52
2023/08/28 03:51:09;;;;;;;281.75;55.47;;;;;;;;;;4925172;28;20283;-53
2023/08/28 03:53:34;;;;;;;291.70;55.07;;;;;;;;;;4925676;28;21138;-54
2023/08/28 03:55:59;;;;;;;323.90;55.87;;;;;;;;;;4926910;28;20810;-53
2023/08/28 03:58:24;;;;;;;278.10;55.47;;;;;;;;;;4928054;28;20757;-53
2023/08/28 04:00:56;;;;;;;290.40;55.20;;;;;;;;;;4927317;28;20771;-54
2023/08/28 04:03:21;;;;;;;352.60;57.53;;;;;;;;;;4928758;28;21115;-53
2023/08/28 04:05:48;;;;;;;297.67;54.95;;;;;;;;;;4928960;28;20773;-54
2023/08/28 04:08:13;;;;;;;303.52;55.10;;;;;;;;;;4927844;28;20019;-54
2023/08/28 04:10:38;;;;;;;323.42;55.58;;;;;;;;;;4926473;28;20036;-53
2023/08/28 04:13:04;;;;;;;325.17;56.77;;;;;;;;;;4925708;28;20070;-55
2023/08/28 04:15:29;;;;;;;303.57;56.37;;;;;;;;;;4928416;28;20272;-53
2023/08/28 04:17:56;;;;;;;317.03;55.37;;;;;;;;;;4926924;28;20286;-54
2023/08/28 04:20:21;;;;;;;376.02;58.35;;;;;;;;;;4928031;28;20510;-52
2023/08/28 04:22:46;;;;;;;307.70;55.43;;;;;;;;;;4925484;28;20022;-53
2023/08/28 04:25:12;;;;;;;332.67;58.10;;;;;;;;;;4922031;28;20519;-52
2023/08/28 04:27:38;;;;;;;311.10;55.20;;;;;;;;;;4926638;28;20266;-52
2023/08/28 04:30:04;;;;;;;346.08;56.63;;;;;;;;;;4925960;28;20570;-52
2023/08/28 04:32:29;;;;;;;411.38;60.03;;;;;;;;;;4921938;28;20039;-54
2023/08/28 04:34:55;;;;;;;313.95;55.25;;;;;;;;;;4925741;28;20022;-52
2023/08/28 04:37:20;;;;;;;371.02;58.40;;;;;;;;;;4923781;28;20027;-55
2023/08/28 04:39:46;;;;;;;390.92;58.38;;;;;;;;;;4925774;28;20023;-53
2023/08/28 04:42:12;;;;;;;276.80;55.93;;;;;;;;;;4925409;28;20469;-52
2023/08/28 04:44:38;;;;;;;342.13;58.38;;;;;;;;;;4922638;28;20270;-55
2023/08/28 04:47:03;;;;;;;338.55;58.20;;;;;;;;;;4924562;28;20040;-54
2023/08/28 04:49:28;;;;;;;392.33;61.47;;;;;;;;;;4924287;28;20221;-55
2023/08/28 04:51:54;;;;;;;308.48;58.92;;;;;;;;;;4924512;28;20118;-54
2023/08/28 04:54:19;;;;;;;381.37;59.87;;;;;;;;;;4923455;28;20498;-53
2023/08/28 04:56:45;;;;;;;281.70;57.75;;;;;;;;;;4925091;28;20267;-52
2023/08/28 04:59:10;;;;;;;346.15;58.03;;;;;;;;;;4924658;28;20077;-53
2023/08/28 05:01:35;;;;;;;327.27;57.60;;;;;;;;;;4924362;28;20039;-52
2023/08/28 05:04:00;;;;;;;306.35;58.13;;;;;;;;;;4925426;28;20461;-54
2023/08/28 05:06:26;;;;;;;440.77;62.17;;;;;;;;;;4923898;28;20078;-54
2023/08/28 05:08:51;;;;;;;326.07;58.77;;;;;;;;;;4924842;28;20326;-54
2023/08/28 05:11:16;;;;;;;362.90;59.67;;;;;;;;;;4923033;28;20457;-54
2023/08/28 05:13:41;;;;;;;306.80;56.50;;;;;;;;;;4925430;28;20532;-53
2023/08/28 05:16:07;;;;;;;300.40;57.30;;;;;;;;;;4922114;28;20122;-53
2023/08/28 05:18:32;;;;;;;454.52;62.92;;;;;;;;;;4923524;28;20363;-55
2023/08/28 05:20:57;;;;;;;356.47;57.17;;;;;;;;;;4923094;28;20596;-53
2023/08/28 05:23:25;;;;;;;458.40;59.90;;;;;;;;;;4924810;28;20752;-55
2023/08/28 05:25:54;;;;;;;274.98;53.10;;;;;;;;;;4923915;28;20147;-55
2023/08/28 05:28:19;;;;;;;451.92;58.72;;;;;;;;;;4924213;28;20020;-55
2023/08/28 05:30:44;;;;;;;302.88;54.65;;;;;;;;;;4925584;28;20042;-53
2023/08/28 05:33:10;;;;;;;295.50;53.55;;;;;;;;;;4924280;28;20023;-53
2023/08/28 05:35:35;;;;;;;350.90;56.00;;;;;;;;;;4924434;28;20556;-55
2023/08/28 05:38:00;;;;;;;290.23;53.37;;;;;;;;;;4924059;28;20658;-54
2023/08/28 05:40:25;;;;;;;433.55;59.10;;;;;;;;;;4922696;28;20725;-55
2023/08/28 05:42:52;;;;;;;376.73;56.38;;;;;;;;;;4925876;28;20477;-54
2023/08/28 05:45:17;;;;;;;260.17;54.28;;;;;;;;;;4924223;28;20023;-54
2023/08/28 05:47:42;;;;;;;271.95;53.13;;;;;;;;;;4925502;28;20035;-54
2023/08/28 05:50:08;;;;;;;376.23;59.00;;;;;;;;;;4924647;28;20020;-55
2023/08/28 05:52:34;;;;;;;415.15;58.92;;;;;;;;;;4924032;28;20297;-54
2023/08/28 05:54:59;;;;;;;266.83;55.17;;;;;;;;;;4927413;28;20080;-53
2023/08/28 05:57:24;;;;;;;432.20;60.90;;;;;;;;;;4922569;28;20040;-54
2023/08/28 05:59:50;;;;;;;306.13;55.85;;;;;;;;;;4925090;28;20545;-54
2023/08/28 06:02:15;;;;;;;301.45;55.97;;;;;;;;;;4925140;28;20070;-53
2023/08/28 06:04:43;;;;;;;339.40;56.90;;;;;;;;;;4923823;28;20038;-55
2023/08/28 06:07:08;;;;;;;285.98;55.30;;;;;;;;;;4924497;28;20071;-54
2023/08/28 06:09:34;;;;;;;443.10;62.87;;;;;;;;;;4924088;28;20158;-53
2023/08/28 06:11:59;;;;;;;365.10;58.60;;;;;;;;;;4923673;28;20369;-54
2023/08/28 06:14:25;;;;;;;420.30;61.92;;;;;;;;;;4923516;28;20579;-56
2023/08/28 06:16:50;;;;;;;302.95;57.03;;;;;;;;;;4923520;28;20457;-54
2023/08/28 06:19:15;;;;;;;341.20;56.10;;;;;;;;;;4923548;28;20035;-56
2023/08/28 06:21:44;;;;;;;302.90;54.57;;;;;;;;;;4923608;28;20295;-53
2023/08/28 06:24:10;;;;;;;286.38;53.58;;;;;;;;;;4924853;28;20931;-55
2023/08/28 06:26:35;;;;;;;402.90;59.27;;;;;;;;;;4922694;28;20047;-54
2023/08/28 06:29:00;;;;;;;312.37;54.87;;;;;;;;;;4922239;28;20684;-54
2023/08/28 06:31:25;;;;;;;354.27;56.27;;;;;;;;;;4922386;28;20032;-55
2023/08/28 06:33:50;;;;;;;311.27;56.00;;;;;;;;;;4925769;28;20011;-55
2023/08/28 06:36:16;;;;;;;305.97;54.30;;;;;;;;;;4924430;28;20627;-54
2023/08/28 06:38:41;;;;;;;307.87;54.57;;;;;;;;;;4924035;28;20291;-55
2023/08/28 06:41:07;;;;;;;248.25;53.28;;;;;;;;;;4924866;28;20430;-56
2023/08/28 06:43:32;;;;;;;314.75;53.28;;;;;;;;;;4928225;28;20355;-54
2023/08/28 06:45:58;;;;;;;316.35;55.92;;;;;;;;;;4926629;28;20434;-54
2023/08/28 06:48:23;;;;;;;329.42;54.30;;;;;;;;;;4928810;28;20440;-53
2023/08/28 06:50:51;;;;;;;270.13;50.88;;;;;;;;;;4928665;28;20358;-54
2023/08/28 06:53:16;;;;;;;326.60;51.92;;;;;;;;;;4929938;28;20019;-55
2023/08/28 06:55:42;;;;;;;295.20;51.67;;;;;;;;;;4928234;28;20061;-54
2023/08/28 06:58:07;;;;;;;285.52;50.22;;;;;;;;;;4930428;28;20610;-55
2023/08/28 07:00:33;;;;;;;329.33;51.50;;;;;;;;;;4928959;28;20039;-56
2023/08/28 07:02:58;;;;;;;313.30;50.87;;;;;;;;;;4931237;28;20848;-54
2023/08/28 07:05:23;;;;;;;280.93;49.27;;;;;;;;;;4929551;28;20638;-54
2023/08/28 07:07:48;;;;;;;288.43;49.83;;;;;;;;;;4931328;28;20587;-56
2023/08/28 07:10:13;;;;;;;318.90;49.77;;;;;;;;;;4931072;28;20259;-54
2023/08/28 07:12:39;;;;;;;285.17;49.10;;;;;;;;;;4928774;28;20273;-54
2023/08/28 07:15:10;;;;;;;299.90;48.27;;;;;;;;;;4929106;28;20419;-56
2023/08/28 07:17:35;;;;;;;277.77;48.45;;;;;;;;;;4929921;28;20832;-56
2023/08/28 07:20:00;;;;;;;324.13;47.43;;;;;;;;;;4928574;28;20019;-56
2023/08/28 07:22:26;;;;;;;418.05;53.30;;;;;;;;;;4927113;28;20319;-56
2023/08/28 07:24:51;;;;;;;203.37;46.87;;;;;;;;;;4931169;28;20081;-55
2023/08/28 07:27:17;;;;;;;203.27;45.33;;;;;;;;;;4931329;28;20386;-56
2023/08/28 07:29:42;;;;;;;249.85;47.03;;;;;;;;;;4926616;28;20629;-55
2023/08/28 07:32:07;;;;;;;225.70;44.73;;;;;;;;;;4930481;28;20471;-57
2023/08/28 07:34:33;;;;;;;351.73;50.33;;;;;;;;;;4930253;28;20270;-55
2023/08/28 07:36:58;;;;;;;268.35;45.72;;;;;;;;;;4930979;28;20055;-55
2023/08/28 07:39:23;;;;;;;218.13;45.23;;;;;;;;;;4931323;28;20397;-54
2023/08/28 07:41:48;;;;;;;199.27;44.17;;;;;;;;;;4930977;28;20288;-54
2023/08/28 07:44:14;;;;;;;266.05;45.15;;;;;;;;;;4932221;28;20086;-53
2023/08/28 07:46:40;;;;;;;320.05;47.38;;;;;;;;;;4929446;28;20696;-56
2023/08/28 07:49:05;;;;;;;221.75;44.55;;;;;;;;;;4930983;28;20027;-56
2023/08/28 07:51:30;;;;;;;410.45;49.63;;;;;;;;;;4926911;28;20053;-54
2023/08/28 07:53:55;;;;;;;211.30;45.40;;;;;;;;;;4930214;28;20028;-53
2023/08/28 07:56:21;;;;;;;162.70;43.77;;;;;;;;;;4930229;28;20572;-55
2023/08/28 07:58:46;;;;;;;260.10;44.50;;;;;;;;;;4929685;28;20338;-54
2023/08/28 08:01:11;;;;;;;311.40;47.27;;;;;;;;;;4928305;28;20139;-57
2023/08/28 08:03:36;;;;;;;271.75;45.08;;;;;;;;;;4926528;28;20035;-54
2023/08/28 08:06:03;;;;;;;300.97;47.50;;;;;;;;;;4926741;28;20109;-54
2023/08/28 08:08:28;;;;;;;292.63;48.28;;;;;;;;;;4930486;28;20075;-54
2023/08/28 08:10:53;;;;;;;211.75;46.38;;;;;;;;;;4927280;28;20040;-55
2023/08/28 08:13:19;;;;;;;294.70;46.90;;;;;;;;;;4929705;28;20026;-55
2023/08/28 08:15:44;;;;;;;230.63;45.60;;;;;;;;;;4934550;28;20263;-56
2023/08/28 08:18:09;;;;;;;216.97;45.67;;;;;;;;;;4932593;28;20036;-55
2023/08/28 08:20:34;;;;;;;408.23;51.10;;;;;;;;;;4927861;28;20339;-56
2023/08/28 08:23:00;;;;;;;247.17;45.73;;;;;;;;;;4930322;28;20738;-56
2023/08/28 08:25:25;;;;;;;233.93;46.92;;;;;;;;;;4928638;28;21121;-56
2023/08/28 08:27:51;;;;;;;288.27;47.40;;;;;;;;;;4930817;28;20378;-54
2023/08/28 08:30:16;;;;;;;249.27;46.97;;;;;;;;;;4929369;28;20018;-55
2023/08/28 08:32:43;;;;;;;339.10;50.40;;;;;;;;;;4929655;28;20057;-54
2023/08/28 08:35:09;;;;;;;247.18;44.83;;;;;;;;;;4926178;28;20019;-54
2023/08/28 08:37:35;;;;;;;360.17;49.78;;;;;;;;;;4928196;28;20027;-53
2023/08/28 08:40:00;;;;;;;267.77;42.03;;;;;;;;;;4931272;28;20042;-55
2023/08/28 08:42:26;;;;;;;283.52;45.72;;;;;;;;;;4926841;28;20085;-56
2023/08/28 08:44:52;;;;;;;224.82;44.17;;;;;;;;;;4927490;28;20506;-53
2023/08/28 08:47:17;;;;;;;215.35;45.83;;;;;;;;;;4929980;28;20214;-53
2023/08/28 08:49:44;;;;;;;441.60;52.97;;;;;;;;;;4925837;28;20027;-54
2023/08/28 08:52:11;;;;;;;230.25;44.85;;;;;;;;;;4925076;28;20057;-53
2023/08/28 08:54:39;;;;;;;316.75;49.28;;;;;;;;;;4927156;28;20110;-54
2023/08/28 08:57:08;;;;;;;299.02;48.55;;;;;;;;;;4928407;28;20035;-55
2023/08/28 08:59:34;;;;;;;369.10;50.95;;;;;;;;;;4927406;28;20032;-54
2023/08/28 09:02:02;;;;;;;232.30;47.25;;;;;;;;;;4927596;28;20413;-54
2023/08/28 09:04:28;;;;;;;266.52;47.72;;;;;;;;;;4928243;28;20034;-56
2023/08/28 09:06:54;;;;;;;207.63;46.10;;;;;;;;;;4928532;28;20027;-55
2023/08/28 09:09:20;;;;;;;214.43;45.30;;;;;;;;;;4929631;28;20126;-56
2023/08/28 09:11:46;;;;;;;225.55;47.08;;;;;;;;;;4927558;28;20323;-55
2023/08/28 09:14:12;;;;;;;229.95;47.95;;;;;;;;;;4928969;28;20394;-54
2023/08/28 09:16:37;;;;;;;383.20;51.20;;;;;;;;;;4927543;28;20562;-55
2023/08/28 09:19:03;;;;;;;239.82;48.03;;;;;;;;;;4929949;28;20036;-54
2023/08/28 09:21:33;;;;;;;248.93;49.20;;;;;;;;;;4933546;28;20065;-55
2023/08/28 09:23:58;;;;;;;290.80;49.10;;;;;;;;;;4928926;28;20026;-55
2023/08/28 09:26:24;;;;;;;209.07;48.43;;;;;;;;;;4930007;28;20035;-57
2023/08/28 09:29:03;;;;;;;207.43;46.95;;;;;;;;;;4928892;28;20258;-56
2023/08/28 09:31:35;;;;;;;230.23;48.47;;;;;;;;;;4928032;28;20040;-56
2023/08/28 09:34:02;;;;;;;191.50;47.90;;;;;;;;;;4928538;28;20023;-54
2023/08/28 09:36:27;;;;;;;296.75;51.20;;;;;;;;;;4928587;28;20091;-55
2023/08/28 09:38:57;;;;;;;196.20;46.47;;;;;;;;;;4929875;28;20048;-56
2023/08/28 09:41:34;;;;;;;221.00;46.35;;;;;;;;;;4928180;28;20031;-56
2023/08/28 09:43:59;;;;;;;225.10;47.97;;;;;;;;;;4929137;28;20334;-55
2023/08/28 09:46:25;;;;;;;229.03;45.97;;;;;;;;;;4930948;28;20533;-54
2023/08/28 09:48:52;;;;;;;252.32;46.50;;;;;;;;;;4927156;28;20322;-54
2023/08/28 09:51:18;;;;;;;215.88;44.03;;;;;;;;;;4929033;28;20062;-54
2023/08/28 09:53:43;;;;;;;308.63;47.63;;;;;;;;;;4928580;28;20143;-53
2023/08/28 09:56:08;;;;;;;313.87;45.57;;;;;;;;;;4925765;28;20047;-54
2023/08/28 09:58:35;;;;;;;360.10;47.70;;;;;;;;;;4928406;28;20286;-54
2023/08/28 10:01:00;;;;;;;200.52;42.08;;;;;;;;;;4929946;28;20378;-55
2023/08/28 10:03:26;;;;;;;304.30;44.42;;;;;;;;;;4928910;28;20031;-53
2023/08/28 10:05:52;;;;;;;208.25;42.63;;;;;;;;;;4926231;28;20401;-54
2023/08/28 10:08:18;;;;;;;220.43;42.88;;;;;;;;;;4929212;28;20059;-53
2023/08/28 10:10:47;;;;;;;389.90;48.58;;;;;;;;;;4927326;28;20046;-54
2023/08/28 10:13:14;;;;;;;212.65;40.75;;;;;;;;;;4930302;28;20050;-53
2023/08/28 10:15:41;;;;;;;362.98;46.78;;;;;;;;;;4926732;28;20587;-54
2023/08/28 10:18:09;;;;;;;179.55;40.55;;;;;;;;;;4929726;28;20310;-53
2023/08/28 10:20:34;;;;;;;279.98;44.22;;;;;;;;;;4925050;28;20036;-53
2023/08/28 10:23:00;;;;;;;234.85;43.08;;;;;;;;;;4930997;28;20441;-53
2023/08/28 10:25:28;;;;;;;210.80;40.88;;;;;;;;;;4930982;28;20032;-54
2023/08/28 10:27:54;;;;;;;155.75;39.50;;;;;;;;;;4931171;28;20529;-56
2023/08/28 10:30:21;;;;;;;241.43;39.97;;;;;;;;;;4929731;28;20019;-56
2023/08/28 10:32:47;;;;;;;410.00;86.93;;;;;;;;;;4931334;28;20106;-55
2023/08/28 10:35:13;;;;;;;171.98;36.17;;;;;;;;;;4931610;28;20087;-55
2023/08/28 10:37:39;;;;;;;384.60;37.60;;;;;;;;;;4931004;28;20055;-55
2023/08/28 10:40:05;;;;;;;221.57;29.50;;;;;;;;;;4932602;28;20367;-54
2023/08/28 10:42:30;;;;;;;172.73;30.42;;;;;;;;;;4930876;28;20050;-56
2023/08/28 10:44:57;;;;;;;244.77;22.15;;;;;;;;;;4932866;28;20024;-56
2023/08/28 10:47:22;;;;;;;175.52;22.48;;;;;;;;;;4930965;28;20413;-56
2023/08/28 10:49:47;;;;;;;290.83;26.73;;;;;;;;;;4931152;28;20486;-55
2023/08/28 10:52:13;;;;;;;237.40;24.23;;;;;;;;;;4929872;28;20059;-56
2023/08/28 10:54:39;;;;;;;321.65;27.75;;;;;;;;;;4929583;28;20039;-56
2023/08/28 10:57:09;;;;;;;157.65;20.27;;;;;;;;;;4931184;28;20051;-56
2023/08/28 10:59:43;;;;;;;263.02;23.40;;;;;;;;;;4932178;28;20028;-55
2023/08/28 11:02:09;;;;;;;199.63;23.02;;;;;;;;;;4931496;28;20035;-56
2023/08/28 11:04:39;;;;;;;192.20;20.83;;;;;;;;;;4931301;28;20019;-55
2023/08/28 11:07:07;;;;;;;159.63;21.98;;;;;;;;;;4931185;28;20115;-56
2023/08/28 11:09:32;;;;;;;167.00;21.65;;;;;;;;;;4931974;28;20917;-56
2023/08/28 11:11:58;;;;;;;193.77;21.00;;;;;;;;;;4930911;28;20046;-54
2023/08/28 11:14:23;;;;;;;154.75;19.08;;;;;;;;;;4937922;28;20054;-56
2023/08/28 11:16:49;;;;;;;277.50;23.00;;;;;;;;;;4931387;28;20039;-55
2023/08/28 11:19:14;;;;;;;224.18;18.60;;;;;;;;;;4932028;28;20034;-56
2023/08/28 11:21:42;;;;;;;282.87;21.40;;;;;;;;;;4929288;28;20382;-56
2023/08/28 11:24:17;;;;;;;252.40;97.13;;;;;;;;;;4930569;28;20082;-56
2023/08/28 11:26:43;;;;;;;310.92;18.55;;;;;;;;;;4928450;28;20430;-56
2023/08/28 11:29:24;;;;;;;142.40;12.60;;;;;;;;;;4931941;28;20545;-54
2023/08/28 11:31:49;;;;;;;308.10;37.53;;;;;;;;;;4928121;28;20047;-56
2023/08/28 11:34:15;;;;;;;191.05;28.30;;;;;;;;;;4929834;28;20030;-58
2023/08/28 11:36:40;;;;;;;282.00;47.80;;;;;;;;;;4927692;28;20039;-57
2023/08/28 11:39:05;;;;;;;463.88;221.55;;;;;;;;;;4930324;28;20271;-57
2023/08/28 11:41:31;;;;;;;131.27;9.80;;;;;;;;;;4930981;28;20076;-55
2023/08/28 11:43:56;;;;;;;201.30;22.13;;;;;;;;;;4932304;28;20038;-56
2023/08/28 11:46:24;;;;;;;181.50;10.82;;;;;;;;;;4930220;28;20047;-56
2023/08/28 11:48:49;;;;;;;241.23;15.32;;;;;;;;;;4927989;28;20399;-56
2023/08/28 11:51:15;;;;;;;177.75;12.30;;;;;;;;;;4928325;28;20513;-56
2023/08/28 11:53:41;;;;;;;250.18;35.85;;;;;;;;;;4931951;28;20433;-57
2023/08/28 11:56:07;;;;;;;162.52;11.23;;;;;;;;;;4930789;28;20039;-55
2023/08/28 11:58:33;;;;;;;206.30;12.95;;;;;;;;;;4930447;28;20032;-57
2023/08/28 12:01:00;;;;;;;181.98;13.82;;;;;;;;;;4928906;28;20031;-55
2023/08/28 12:03:25;;;;;;;190.00;11.73;;;;;;;;;;4930094;28;20502;-55
2023/08/28 12:05:59;;;;;;;283.35;16.92;;;;;;;;;;4929560;28;20035;-55
2023/08/28 12:08:24;;;;;;;105.85;11.48;;;;;;;;;;4931121;28;20469;-57
2023/08/28 12:10:50;;;;;;;283.80;22.08;;;;;;;;;;4926795;28;20494;-56
2023/08/28 12:13:19;;;;;;;239.10;16.92;;;;;;;;;;4932866;28;20642;-56
2023/08/28 12:15:44;;;;;;;264.52;19.02;;;;;;;;;;4927480;28;20047;-57
2023/08/28 12:18:09;;;;;;;160.33;12.30;;;;;;;;;;4932404;28;20038;-57
2023/08/28 12:20:35;;;;;;;196.23;14.40;;;;;;;;;;4929268;28;20047;-56
2023/08/28 12:23:01;;;;;;;138.55;14.00;;;;;;;;;;4927931;28;20026;-56
2023/08/28 12:25:34;;;;;;;132.10;13.48;;;;;;;;;;4930498;28;20031;-56
2023/08/28 12:28:18;;;;;;;153.27;14.68;;;;;;;;;;4929121;28;20054;-57
2023/08/28 12:30:43;;;;;;;294.50;21.00;;;;;;;;;;4928867;28;20127;-54
2023/08/28 12:33:08;;;;;;;179.60;18.13;;;;;;;;;;4931229;28;20034;-54
2023/08/28 12:35:40;;;;;;;172.52;17.00;;;;;;;;;;4931673;28;20572;-57
2023/08/28 12:38:06;;;;;;;241.70;19.85;;;;;;;;;;4931434;28;20023;-57
2023/08/28 12:40:34;;;;;;;166.35;19.58;;;;;;;;;;4930798;28;20130;-57
2023/08/28 12:43:02;;;;;;;174.10;20.52;;;;;;;;;;4928984;28;20027;-54
2023/08/28 12:45:28;;;;;;;208.48;20.63;;;;;;;;;;4927783;28;20047;-55
2023/08/28 12:47:53;;;;;;;232.05;23.48;;;;;;;;;;4929367;28;20027;-55
2023/08/28 12:50:18;;;;;;;191.60;23.93;;;;;;;;;;4929008;28;20026;-58
2023/08/28 12:52:43;;;;;;;280.70;28.10;;;;;;;;;;4935204;28;20688;-57
2023/08/28 12:55:09;;;;;;;176.23;24.25;;;;;;;;;;4928063;28;20274;-57
2023/08/28 12:57:34;;;;;;;242.77;26.70;;;;;;;;;;4928946;28;20122;-57
2023/08/28 12:59:59;;;;;;;239.98;25.08;;;;;;;;;;4927747;28;20162;-61
2023/08/28 13:02:26;;;;;;;170.88;23.05;;;;;;;;;;4929078;28;20659;-56
2023/08/28 13:04:52;;;;;;;356.90;30.98;;;;;;;;;;4926956;28;20047;-54
2023/08/28 13:07:17;;;;;;;196.68;24.50;;;;;;;;;;4929583;28;20078;-58
2023/08/28 13:09:42;;;;;;;255.10;26.52;;;;;;;;;;4928904;28;20019;-55
2023/08/28 13:12:09;;;;;;;245.43;27.87;;;;;;;;;;4931953;28;20082;-55
2023/08/28 13:14:35;;;;;;;180.88;24.75;;;;;;;;;;4929576;28;20275;-56
2023/08/28 13:17:00;;;;;;;184.85;23.17;;;;;;;;;;4929642;28;20027;-57
2023/08/28 13:19:25;;;;;;;216.37;24.47;;;;;;;;;;4931703;28;20503;-59
2023/08/28 13:21:52;;;;;;;280.10;28.10;;;;;;;;;;4927780;28;20667;-56
2023/08/28 13:24:18;;;;;;;197.73;33.20;;;;;;;;;;4930525;28;20309;-56
2023/08/28 13:26:43;;;;;;;288.33;27.42;;;;;;;;;;4926896;28;20490;-55
2023/08/28 13:29:08;;;;;;;187.03;23.87;;;;;;;;;;4931348;28;20044;-57
2023/08/28 13:31:34;;;;;;;192.13;23.60;;;;;;;;;;4929715;28;20279;-59
2023/08/28 13:33:59;;;;;;;340.60;29.42;;;;;;;;;;4929029;28;20027;-57
2023/08/28 13:36:25;;;;;;;176.32;24.27;;;;;;;;;;4927729;28;20401;-58
2023/08/28 13:38:51;;;;;;;261.17;28.55;;;;;;;;;;4927261;28;20032;-56
2023/08/28 13:41:18;;;;;;;248.77;26.30;;;;;;;;;;4928478;28;20036;-56
2023/08/28 13:43:43;;;;;;;170.30;25.85;;;;;;;;;;4927947;28;20168;-56
2023/08/28 13:46:08;;;;;;;151.27;24.50;;;;;;;;;;4931001;28;20035;-55
2023/08/28 13:48:34;;;;;;;227.53;25.67;;;;;;;;;;4929448;28;20028;-56
2023/08/28 13:50:59;;;;;;;287.55;30.48;;;;;;;;;;4925932;28;20892;-56
2023/08/28 13:53:24;;;;;;;234.77;24.40;;;;;;;;;;4928414;28;20028;-56
2023/08/28 13:55:52;;;;;;;348.95;33.03;;;;;;;;;;4926596;28;20278;-57
2023/08/28 13:58:21;;;;;;;188.95;25.80;;;;;;;;;;4932359;28;20117;-56